createdAt,value
2023-02-16T00:01:56.982Z,1.76
2023-02-16T00:04:27.419Z,1.76
2023-02-16T00:06:53.572Z,1.75
2023-02-16T00:09:19.868Z,1.73
2023-02-16T00:12:04.977Z,1.71
2023-02-16T00:14:31.396Z,1.72
2023-02-16T00:16:58.197Z,1.74
2023-02-16T00:19:37.456Z,1.76
2023-02-16T00:22:04.513Z,1.74
2023-02-16T00:24:30.532Z,1.72
2023-02-16T00:26:56.648Z,1.71
2023-02-16T00:29:28.561Z,1.69
2023-02-16T00:31:55.293Z,1.69
2023-02-16T00:34:31.899Z,1.69
2023-02-16T00:37:03.598Z,1.70
2023-02-16T00:39:29.638Z,1.67
2023-02-16T00:42:01.070Z,1.66
2023-02-16T00:44:36.878Z,1.66
2023-02-16T00:47:29.097Z,1.67
2023-02-16T00:49:55.966Z,1.69
2023-02-16T00:52:31.150Z,1.68
2023-02-16T00:54:57.707Z,1.65
2023-02-16T00:57:23.720Z,1.63
2023-02-16T00:59:59.855Z,1.60
2023-02-16T01:02:25.796Z,1.62
2023-02-16T01:04:51.862Z,1.62
2023-02-16T01:07:36.887Z,1.62
2023-02-16T01:10:24.416Z,1.61
2023-02-16T01:12:50.387Z,1.60
2023-02-16T01:15:17.493Z,1.60
2023-02-16T01:17:43.360Z,1.58
2023-02-16T01:20:20.390Z,1.59
2023-02-16T01:22:47.133Z,1.63
2023-02-16T01:25:14.174Z,1.66
2023-02-16T01:27:40.537Z,1.69
2023-02-16T01:30:07.959Z,1.73
2023-02-16T01:32:33.916Z,1.73
2023-02-16T01:34:59.928Z,1.72
2023-02-16T01:37:25.847Z,1.73
2023-02-16T01:39:51.774Z,1.72
2023-02-16T01:42:24.773Z,1.69
2023-02-16T01:44:52.607Z,1.68
2023-02-16T01:47:41.056Z,1.68
2023-02-16T01:50:21.711Z,1.68
2023-02-16T01:53:16.934Z,1.67
2023-02-16T01:55:43.874Z,1.68
2023-02-16T01:58:26.669Z,1.66
2023-02-16T02:00:53.244Z,1.66
2023-02-16T02:03:39.329Z,1.67
2023-02-16T02:06:09.538Z,1.64
2023-02-16T02:08:45.655Z,1.66
2023-02-16T02:11:16.550Z,1.70
2023-02-16T02:13:46.620Z,1.78
2023-02-16T02:16:16.493Z,1.83
2023-02-16T02:18:44.364Z,1.86
2023-02-16T02:21:54.764Z,1.81
2023-02-16T02:24:40.001Z,1.69
2023-02-16T02:27:31.311Z,1.64
2023-02-16T02:30:21.041Z,1.56
2023-02-16T02:33:02.985Z,1.46
2023-02-16T02:35:51.070Z,1.32
2023-02-16T02:38:27.062Z,1.18
2023-02-16T02:41:07.048Z,1.16
2023-02-16T02:43:56.815Z,1.16
2023-02-16T02:46:26.441Z,1.14
2023-02-16T02:48:52.532Z,1.16
2023-02-16T02:51:29.303Z,1.14
2023-02-16T02:54:24.284Z,1.12
2023-02-16T02:57:20.839Z,1.10
2023-02-16T03:00:19.974Z,1.13
2023-02-16T03:02:48.756Z,1.17
2023-02-16T03:05:15.472Z,1.16
2023-02-16T03:07:47.838Z,1.12
2023-02-16T03:10:37.683Z,1.09
2023-02-16T03:13:03.888Z,1.04
2023-02-16T03:15:30.599Z,0.98
2023-02-16T03:18:15.326Z,0.95
2023-02-16T03:21:00.400Z,0.92
2023-02-16T03:23:45.539Z,0.88
2023-02-16T03:26:30.798Z,0.86
2023-02-16T03:29:16.898Z,0.83
2023-02-16T03:31:42.844Z,0.79
2023-02-16T03:34:08.840Z,0.79
2023-02-16T03:36:36.393Z,0.80
2023-02-16T03:39:03.138Z,0.80
2023-02-16T03:41:33.877Z,0.82
2023-02-16T03:43:59.849Z,0.83
2023-02-16T03:46:25.922Z,0.80
2023-02-16T03:48:51.850Z,0.80
2023-02-16T03:51:17.770Z,0.79
2023-02-16T03:53:43.858Z,0.74
2023-02-16T03:56:09.961Z,0.70
2023-02-16T03:58:35.950Z,0.68
2023-02-16T04:01:02.342Z,0.69
2023-02-16T04:03:28.747Z,0.67
2023-02-16T04:05:55.855Z,0.66
2023-02-16T04:08:21.705Z,0.65
2023-02-16T04:10:47.610Z,0.67
2023-02-16T04:13:13.541Z,0.73
2023-02-16T04:15:40.680Z,0.76
2023-02-16T04:18:06.613Z,0.81
2023-02-16T04:20:33.095Z,0.84
2023-02-16T04:22:59.329Z,0.87
2023-02-16T04:25:25.362Z,0.87
2023-02-16T04:27:51.603Z,0.85
2023-02-16T04:30:23.391Z,0.86
2023-02-16T04:32:49.505Z,0.90
2023-02-16T04:35:15.720Z,0.92
2023-02-16T04:37:41.710Z,0.92
2023-02-16T04:40:08.971Z,0.93
2023-02-16T04:42:34.911Z,0.93
2023-02-16T04:45:00.936Z,0.90
2023-02-16T04:47:28.161Z,0.86
2023-02-16T04:49:54.237Z,0.85
2023-02-16T04:52:20.237Z,0.88
2023-02-16T04:54:46.136Z,0.93
2023-02-16T04:57:12.157Z,0.96
2023-02-16T04:59:38.204Z,0.98
2023-02-16T05:02:04.327Z,1.00
2023-02-16T05:04:30.511Z,1.05
2023-02-16T05:06:56.504Z,1.08
2023-02-16T05:09:22.510Z,1.06
2023-02-16T05:12:07.148Z,1.01
2023-02-16T05:14:44.772Z,1.00
2023-02-16T05:17:16.181Z,0.99
2023-02-16T05:19:43.513Z,1.01
2023-02-16T05:22:09.903Z,0.98
2023-02-16T05:24:36.229Z,0.95
2023-02-16T05:27:06.475Z,0.92
2023-02-16T05:29:32.426Z,0.91
2023-02-16T05:31:58.806Z,0.92
2023-02-16T05:34:24.798Z,0.93
2023-02-16T05:36:50.932Z,0.93
2023-02-16T05:39:16.853Z,0.91
2023-02-16T05:41:42.911Z,0.87
2023-02-16T05:44:09.019Z,0.88
2023-02-16T05:46:36.266Z,0.88
2023-02-16T05:49:02.525Z,0.88
2023-02-16T05:51:28.563Z,0.89
2023-02-16T05:53:54.601Z,0.92
2023-02-16T05:56:20.677Z,0.94
2023-02-16T05:58:46.628Z,0.96
2023-02-16T06:01:12.645Z,0.98
2023-02-16T06:03:38.649Z,1.00
2023-02-16T06:06:05.790Z,1.03
2023-02-16T06:08:31.985Z,1.07
2023-02-16T06:10:58.185Z,1.05
2023-02-16T06:13:24.399Z,1.02
2023-02-16T06:15:55.078Z,1.01
2023-02-16T06:18:21.759Z,0.93
2023-02-16T06:20:47.825Z,0.86
2023-02-16T06:23:14.038Z,0.81
2023-02-16T06:25:44.224Z,0.78
2023-02-16T06:28:10.376Z,0.77
2023-02-16T06:30:36.430Z,0.78
2023-02-16T06:33:03.046Z,0.80
2023-02-16T06:35:29.124Z,0.86
2023-02-16T06:37:55.027Z,0.89
2023-02-16T06:40:21.416Z,0.90
2023-02-16T06:42:47.348Z,0.96
2023-02-16T06:45:13.301Z,1.02
2023-02-16T06:47:39.232Z,1.09
2023-02-16T06:50:07.185Z,1.12
2023-02-16T06:52:33.094Z,1.14
2023-02-16T06:54:59.026Z,1.22
2023-02-16T06:57:24.984Z,1.26
2023-02-16T06:59:50.909Z,1.30
2023-02-16T07:02:16.818Z,1.32
2023-02-16T07:04:42.823Z,1.35
2023-02-16T07:07:08.761Z,1.43
2023-02-16T07:09:37.667Z,1.49
2023-02-16T07:12:06.485Z,1.57
2023-02-16T07:14:32.504Z,1.65
2023-02-16T07:17:02.623Z,1.72
2023-02-16T07:19:31.706Z,1.81
2023-02-16T07:21:58.766Z,1.90
2023-02-16T07:24:24.686Z,1.99
2023-02-16T07:26:50.736Z,2.07
2023-02-16T07:29:16.840Z,2.16
2023-02-16T07:31:42.854Z,2.26
2023-02-16T07:34:08.904Z,2.37
2023-02-16T07:36:34.825Z,2.49
2023-02-16T07:39:00.934Z,2.62
2023-02-16T07:41:26.853Z,2.73
2023-02-16T07:43:52.838Z,2.84
2023-02-16T07:46:18.785Z,2.91
2023-02-16T07:48:48.510Z,2.97
2023-02-16T07:51:25.280Z,3.01
2023-02-16T07:53:51.644Z,3.06
2023-02-16T07:56:19.271Z,3.10
2023-02-16T07:58:46.654Z,3.22
2023-02-16T08:01:15.841Z,3.32
2023-02-16T08:03:42.289Z,3.43
2023-02-16T08:06:08.670Z,3.57
2023-02-16T08:08:35.457Z,3.73
2023-02-16T08:11:17.418Z,3.85
2023-02-16T08:13:43.443Z,4.00
2023-02-16T08:16:30.511Z,4.12
2023-02-16T08:18:57.427Z,4.23
2023-02-16T08:21:24.787Z,4.25
2023-02-16T08:23:55.420Z,4.30
2023-02-16T08:26:22.182Z,4.41
2023-02-16T08:28:49.513Z,4.52
2023-02-16T08:31:18.275Z,4.63
2023-02-16T08:33:44.941Z,4.73
2023-02-16T08:36:22.848Z,4.79
2023-02-16T08:38:52.247Z,4.90
2023-02-16T08:41:22.245Z,4.96
2023-02-16T08:43:48.610Z,5.03
2023-02-16T08:46:14.774Z,5.11
2023-02-16T08:48:40.801Z,5.17
2023-02-16T08:51:06.970Z,5.22
2023-02-16T08:53:34.358Z,5.29
2023-02-16T08:56:03.405Z,5.36
2023-02-16T08:58:30.292Z,5.42
2023-02-16T09:00:56.675Z,5.48
2023-02-16T09:03:23.175Z,5.55
2023-02-16T09:05:50.506Z,5.60
2023-02-16T09:08:16.618Z,5.64
2023-02-16T09:10:42.934Z,5.68
2023-02-16T09:13:13.482Z,5.75
2023-02-16T09:15:43.100Z,5.84
2023-02-16T09:18:11.062Z,5.95
2023-02-16T09:20:38.742Z,6.00
2023-02-16T09:23:05.874Z,6.04
2023-02-16T09:25:35.297Z,6.11
2023-02-16T09:28:01.682Z,6.19
2023-02-16T09:30:27.679Z,6.28
2023-02-16T09:32:54.766Z,6.37
2023-02-16T09:35:20.873Z,6.48
2023-02-16T09:37:49.193Z,6.67
2023-02-16T09:40:15.147Z,6.93
2023-02-16T09:43:03.004Z,7.29
2023-02-16T09:45:29.174Z,7.85
2023-02-16T09:47:56.026Z,8.32
2023-02-16T09:50:50.749Z,8.66
2023-02-16T09:53:19.795Z,9.15
2023-02-16T09:55:48.618Z,9.63
2023-02-16T09:58:22.201Z,9.97
2023-02-16T10:00:56.715Z,10.29
2023-02-16T10:03:28.199Z,10.56
2023-02-16T10:06:20.316Z,10.75
2023-02-16T10:08:52.591Z,11.00
2023-02-16T10:11:50.697Z,11.20
2023-02-16T10:14:30.281Z,11.51
2023-02-16T10:17:19.998Z,11.85
2023-02-16T10:20:12.471Z,12.26
2023-02-16T10:22:51.961Z,12.67
2023-02-16T10:25:21.248Z,12.98
2023-02-16T10:27:49.628Z,13.31
2023-02-16T10:30:20.425Z,13.65
2023-02-16T10:32:56.591Z,13.87
2023-02-16T10:35:31.585Z,14.07
2023-02-16T10:38:22.402Z,14.30
2023-02-16T10:40:59.150Z,14.50
2023-02-16T10:43:41.681Z,14.53
2023-02-16T10:46:10.224Z,14.46
2023-02-16T10:48:36.260Z,14.38
2023-02-16T10:51:06.152Z,14.35
2023-02-16T10:53:40.221Z,14.35
2023-02-16T10:56:38.274Z,14.33
2023-02-16T10:59:06.676Z,14.37
2023-02-16T11:01:36.597Z,14.39
2023-02-16T11:04:03.221Z,14.53
2023-02-16T11:06:29.237Z,14.69
2023-02-16T11:08:58.728Z,14.83
2023-02-16T11:11:29.352Z,15.01
2023-02-16T11:14:00.678Z,15.21
2023-02-16T11:16:27.042Z,15.36
2023-02-16T11:19:01.154Z,15.39
2023-02-16T11:21:47.976Z,15.46
2023-02-16T11:24:27.405Z,15.52
2023-02-16T11:27:06.941Z,15.40
2023-02-16T11:29:33.255Z,15.35
2023-02-16T11:32:00.102Z,15.45
2023-02-16T11:34:45.188Z,15.58
2023-02-16T11:37:28.586Z,15.55
2023-02-16T11:40:18.925Z,15.33
2023-02-16T11:42:46.934Z,15.14
2023-02-16T11:45:25.205Z,14.92
2023-02-16T11:47:56.987Z,14.78
2023-02-16T11:50:26.366Z,14.82
2023-02-16T11:53:16.453Z,14.77
2023-02-16T11:55:47.375Z,14.50
2023-02-16T11:58:13.238Z,14.05
2023-02-16T12:00:41.576Z,13.58
2023-02-16T12:03:39.342Z,13.26
2023-02-16T12:06:11.420Z,13.01
2023-02-16T12:08:51.731Z,12.79
2023-02-16T12:11:25.587Z,12.58
2023-02-16T12:14:15.189Z,12.37
2023-02-16T12:17:11.266Z,12.12
2023-02-16T12:20:10.833Z,11.87
2023-02-16T12:22:47.654Z,11.51
2023-02-16T12:25:28.411Z,11.15
2023-02-16T12:28:16.859Z,10.78
2023-02-16T12:31:11.102Z,10.59
2023-02-16T12:34:08.378Z,10.39
2023-02-16T12:36:46.947Z,10.14
2023-02-16T12:39:31.302Z,9.96
2023-02-16T12:42:08.006Z,9.81
2023-02-16T12:44:41.468Z,9.71
2023-02-16T12:47:13.070Z,9.64
2023-02-16T12:49:53.122Z,9.57
2023-02-16T12:52:38.656Z,9.48
2023-02-16T12:55:18.467Z,9.39
2023-02-16T12:57:50.469Z,9.27
2023-02-16T13:00:20.074Z,9.17
2023-02-16T13:02:51.738Z,9.12
2023-02-16T13:05:20.538Z,9.05
2023-02-16T13:07:46.553Z,9.01
2023-02-16T13:10:33.214Z,8.98
2023-02-16T13:13:05.979Z,8.95
2023-02-16T13:15:33.206Z,8.88
2023-02-16T13:18:10.833Z,8.80
2023-02-16T13:20:39.066Z,8.71
2023-02-16T13:23:29.982Z,8.70
2023-02-16T13:26:33.987Z,8.72
2023-02-16T13:29:34.211Z,8.71
2023-02-16T13:32:21.165Z,8.63
2023-02-16T13:35:20.175Z,8.57
2023-02-16T13:38:04.616Z,8.50
2023-02-16T13:40:43.915Z,8.46
2023-02-16T13:43:34.927Z,8.43
2023-02-16T13:46:05.084Z,8.40
2023-02-16T13:48:39.674Z,8.38
2023-02-16T13:51:11.655Z,8.36
2023-02-16T13:53:39.477Z,8.35
2023-02-16T13:56:16.723Z,8.32
2023-02-16T13:58:42.735Z,8.29
2023-02-16T14:01:31.224Z,8.29
2023-02-16T14:04:03.638Z,8.30
2023-02-16T14:06:34.095Z,8.29
2023-02-16T14:09:12.524Z,8.26
2023-02-16T14:11:54.200Z,8.23
2023-02-16T14:14:35.620Z,8.22
2023-02-16T14:17:14.079Z,8.24
2023-02-16T14:19:49.030Z,8.22
2023-02-16T14:22:17.999Z,8.21
2023-02-16T14:24:44.227Z,8.20
2023-02-16T14:27:12.442Z,8.19
2023-02-16T14:29:41.498Z,8.17
2023-02-16T14:32:25.800Z,8.15
2023-02-16T14:35:07.412Z,8.14
2023-02-16T14:37:36.284Z,8.12
2023-02-16T14:40:31.563Z,8.13
2023-02-16T14:42:58.014Z,8.13
2023-02-16T14:45:48.597Z,8.15
2023-02-16T14:48:35.214Z,8.13
2023-02-16T14:51:20.958Z,8.11
2023-02-16T14:53:46.856Z,8.09
2023-02-16T14:56:41.378Z,8.04
2023-02-16T14:59:36.380Z,8.00
2023-02-16T15:02:34.540Z,7.96
2023-02-16T15:05:23.665Z,7.92
2023-02-16T15:07:51.581Z,7.89
2023-02-16T15:10:26.435Z,7.87
2023-02-16T15:12:53.350Z,7.86
2023-02-16T15:15:23.095Z,7.85
2023-02-16T15:17:49.530Z,7.86
2023-02-16T15:20:27.220Z,7.87
2023-02-16T15:23:23.655Z,7.88
2023-02-16T15:25:59.618Z,7.86
2023-02-16T15:28:36.720Z,7.87
2023-02-16T15:31:10.242Z,7.85
2023-02-16T15:33:43.662Z,7.82
2023-02-16T15:36:12.883Z,7.78
2023-02-16T15:38:42.624Z,7.77
2023-02-16T15:41:12.839Z,7.75
2023-02-16T15:43:49.443Z,7.72
2023-02-16T15:46:27.987Z,7.67
2023-02-16T15:48:54.343Z,7.64
2023-02-16T15:51:32.044Z,7.60
2023-02-16T15:53:58.799Z,7.56
2023-02-16T15:56:27.536Z,7.49
2023-02-16T15:58:54.933Z,7.44
2023-02-16T16:01:31.650Z,7.40
2023-02-16T16:04:19.564Z,7.37
2023-02-16T16:06:47.564Z,7.33
2023-02-16T16:09:20.604Z,7.31
2023-02-16T16:11:47.132Z,7.30
2023-02-16T16:14:14.089Z,7.29
2023-02-16T16:16:40.137Z,7.28
2023-02-16T16:19:08.479Z,7.27
2023-02-16T16:21:36.242Z,7.26
2023-02-16T16:24:04.950Z,7.22
2023-02-16T16:26:34.543Z,7.18
2023-02-16T16:29:01.284Z,7.13
2023-02-16T16:31:27.572Z,7.09
2023-02-16T16:34:10.886Z,7.02
2023-02-16T16:36:46.321Z,6.94
2023-02-16T16:39:15.459Z,6.86
2023-02-16T16:41:41.413Z,6.78
2023-02-16T16:44:10.185Z,6.71
2023-02-16T16:46:36.096Z,6.67
2023-02-16T16:49:03.894Z,6.64
2023-02-16T16:51:38.065Z,6.61
2023-02-16T16:54:25.210Z,6.57
2023-02-16T16:56:51.232Z,6.54
2023-02-16T16:59:17.164Z,6.53
2023-02-16T17:01:45.378Z,6.55
2023-02-16T17:04:11.352Z,6.54
2023-02-16T17:06:37.351Z,6.54
2023-02-16T17:09:04.012Z,6.52
2023-02-16T17:11:32.306Z,6.47
2023-02-16T17:14:06.401Z,6.45
2023-02-16T17:16:36.437Z,6.41
2023-02-16T17:19:03.062Z,6.36
2023-02-16T17:21:28.964Z,6.32
2023-02-16T17:23:54.905Z,6.27
2023-02-16T17:26:21.779Z,6.22
2023-02-16T17:28:48.086Z,6.18
2023-02-16T17:31:14.129Z,6.15
2023-02-16T17:33:40.226Z,6.14
2023-02-16T17:36:07.022Z,6.13
2023-02-16T17:38:33.090Z,6.12
2023-02-16T17:40:59.750Z,6.09
2023-02-16T17:43:27.890Z,6.06
2023-02-16T17:45:54.759Z,6.05
2023-02-16T17:48:23.158Z,6.01
2023-02-16T17:50:50.588Z,5.95
2023-02-16T17:53:20.935Z,5.90
2023-02-16T17:55:48.186Z,5.85
2023-02-16T17:58:14.356Z,5.82
2023-02-16T18:00:40.353Z,5.80
2023-02-16T18:03:06.440Z,5.78
2023-02-16T18:05:32.973Z,5.75
2023-02-16T18:07:58.927Z,5.75
2023-02-16T18:10:36.956Z,5.73
2023-02-16T18:13:04.119Z,5.71
2023-02-16T18:15:30.039Z,5.69
2023-02-16T18:17:56.177Z,5.66
2023-02-16T18:20:22.229Z,5.62
2023-02-16T18:22:48.250Z,5.59
2023-02-16T18:25:14.285Z,5.56
2023-02-16T18:27:40.211Z,5.54
2023-02-16T18:30:07.068Z,5.51
2023-02-16T18:32:33.110Z,5.47
2023-02-16T18:34:59.040Z,5.45
2023-02-16T18:37:25.461Z,5.42
2023-02-16T18:39:51.421Z,5.41
2023-02-16T18:42:17.392Z,5.42
2023-02-16T18:44:44.642Z,5.42
2023-02-16T18:47:10.666Z,5.42
2023-02-16T18:49:36.678Z,5.44
2023-02-16T18:52:02.691Z,5.44
2023-02-16T18:54:28.840Z,5.44
2023-02-16T18:56:54.765Z,5.42
2023-02-16T18:59:20.695Z,5.38
2023-02-16T19:01:46.613Z,5.36
2023-02-16T19:04:12.632Z,5.33
2023-02-16T19:06:38.758Z,5.31
2023-02-16T19:09:05.188Z,5.27
2023-02-16T19:11:32.131Z,5.24
2023-02-16T19:13:58.202Z,5.21
2023-02-16T19:16:24.133Z,5.20
2023-02-16T19:18:50.185Z,5.18
2023-02-16T19:21:16.182Z,5.16
2023-02-16T19:23:42.767Z,5.15
2023-02-16T19:26:11.179Z,5.15
2023-02-16T19:28:38.147Z,5.15
2023-02-16T19:31:05.309Z,5.14
2023-02-16T19:33:31.347Z,5.13
2023-02-16T19:36:02.335Z,5.09
2023-02-16T19:38:28.614Z,5.05
2023-02-16T19:40:54.519Z,5.02
2023-02-16T19:43:20.730Z,4.99
2023-02-16T19:45:46.763Z,4.95
2023-02-16T19:48:12.811Z,4.91
2023-02-16T19:50:38.762Z,4.89
2023-02-16T19:53:04.710Z,4.88
2023-02-16T19:55:30.638Z,4.88
2023-02-16T19:57:56.596Z,4.88
2023-02-16T20:00:22.524Z,4.90
2023-02-16T20:02:48.527Z,4.92
2023-02-16T20:05:14.578Z,4.93
2023-02-16T20:07:40.597Z,4.92
2023-02-16T20:10:06.837Z,4.94
2023-02-16T20:12:32.845Z,4.93
2023-02-16T20:14:58.762Z,4.89
2023-02-16T20:17:25.406Z,4.84
2023-02-16T20:19:51.303Z,4.77
2023-02-16T20:22:17.640Z,4.73
2023-02-16T20:24:44.396Z,4.71
2023-02-16T20:27:11.420Z,4.69
2023-02-16T20:29:37.444Z,4.65
2023-02-16T20:32:04.505Z,4.62
2023-02-16T20:34:30.386Z,4.60
2023-02-16T20:36:56.468Z,4.57
2023-02-16T20:39:22.589Z,4.54
2023-02-16T20:41:48.495Z,4.56
2023-02-16T20:44:14.499Z,4.61
2023-02-16T20:46:40.501Z,4.63
2023-02-16T20:49:06.650Z,4.63
2023-02-16T20:51:33.014Z,4.63
2023-02-16T20:54:00.218Z,4.60
2023-02-16T20:56:26.724Z,4.54
2023-02-16T20:58:53.858Z,4.51
2023-02-16T21:01:20.702Z,4.48
2023-02-16T21:03:46.820Z,4.44
2023-02-16T21:06:13.054Z,4.42
2023-02-16T21:08:39.492Z,4.39
2023-02-16T21:11:05.502Z,4.35
2023-02-16T21:13:32.250Z,4.35
2023-02-16T21:15:58.398Z,4.37
2023-02-16T21:18:24.414Z,4.37
2023-02-16T21:20:50.928Z,4.43
2023-02-16T21:23:17.673Z,4.45
2023-02-16T21:25:43.567Z,4.43
2023-02-16T21:28:09.476Z,4.45
2023-02-16T21:30:35.645Z,4.46
2023-02-16T21:33:01.624Z,4.47
2023-02-16T21:35:27.632Z,4.47
2023-02-16T21:37:53.576Z,4.49
2023-02-16T21:40:38.409Z,4.49
2023-02-16T21:43:04.337Z,4.47
2023-02-16T21:45:30.276Z,4.46
2023-02-16T21:48:14.729Z,4.43
2023-02-16T21:50:40.791Z,4.38
2023-02-16T21:53:07.550Z,4.37
2023-02-16T21:55:54.964Z,4.37
2023-02-16T21:58:21.546Z,4.40
2023-02-16T22:00:51.023Z,4.42
2023-02-16T22:03:17.358Z,4.43
2023-02-16T22:05:43.671Z,4.45
2023-02-16T22:08:09.631Z,4.47
2023-02-16T22:10:35.615Z,4.49
2023-02-16T22:13:01.521Z,4.53
2023-02-16T22:15:28.071Z,4.55
2023-02-16T22:17:54.010Z,4.59
2023-02-16T22:20:20.190Z,4.61
2023-02-16T22:22:46.168Z,4.63
2023-02-16T22:25:12.345Z,4.65
2023-02-16T22:27:38.731Z,4.67
2023-02-16T22:30:05.883Z,4.67
2023-02-16T22:32:31.760Z,4.68
2023-02-16T22:34:57.658Z,4.68
2023-02-16T22:37:23.726Z,4.68
2023-02-16T22:39:51.299Z,4.70
2023-02-16T22:42:17.496Z,4.74
2023-02-16T22:44:43.540Z,4.77
2023-02-16T22:47:10.080Z,4.79
2023-02-16T22:49:36.015Z,4.82
2023-02-16T22:52:01.922Z,4.84
2023-02-16T22:54:27.882Z,4.87
2023-02-16T22:56:53.883Z,4.88
2023-02-16T22:59:19.890Z,4.88
2023-02-16T23:01:45.849Z,4.87
2023-02-16T23:04:13.188Z,4.83
2023-02-16T23:06:39.302Z,4.82
2023-02-16T23:09:07.244Z,4.77
2023-02-16T23:11:33.686Z,4.69
2023-02-16T23:13:59.832Z,4.64
2023-02-16T23:16:26.424Z,4.64
2023-02-16T23:18:54.838Z,4.64
2023-02-16T23:21:22.902Z,4.61
2023-02-16T23:23:49.391Z,4.59
2023-02-16T23:26:15.688Z,4.61
2023-02-16T23:28:42.065Z,4.62
2023-02-16T23:31:08.136Z,4.62
2023-02-16T23:33:34.210Z,4.64
2023-02-16T23:36:00.200Z,4.68
2023-02-16T23:38:26.227Z,4.75
2023-02-16T23:40:59.780Z,4.79
2023-02-16T23:43:25.798Z,4.80
2023-02-16T23:45:51.801Z,4.81
2023-02-16T23:48:17.792Z,4.80
2023-02-16T23:50:43.705Z,4.80
2023-02-16T23:53:09.628Z,4.81
2023-02-16T23:55:35.838Z,4.82
2023-02-16T23:58:01.734Z,4.79
